Time;durP1;ratioP1;P1;durP2;ratioP2;P2;SDS_P1;SDS_P2;PMS_P1;PMS_P2;Temp;Humidity;BMP_temperature;BMP_pressure;BME280_temperature;BME280_humidity;BME280_pressure;Samples;Min_cycle;Max_cycle;Signal;HPM_P1;HPM_P2
2022/01/02 00:03:20;;;;;;;;;;;;;;;;;;8349365;28;20048;-67
2022/01/02 00:07:21;;;;;;;21.25;4.07;;;;;;;;;;8351437;28;20454;-67
2022/01/02 00:11:23;;;;;;;261.38;9.13;;;;;;;;;;8349934;28;20519;-67
2022/01/02 00:15:24;;;;;;;723.45;16.10;;;;;;;;;;8351882;28;20039;-67
2022/01/02 00:19:29;;;;;;;521.95;11.45;;;;;;;;;;8350408;28;20048;-67
2022/01/02 00:23:33;;;;;;;91.88;4.72;;;;;;;;;;8350349;28;20087;-67
2022/01/02 00:27:34;;;;;;;162.20;5.93;;;;;;;;;;8352028;28;20140;-67
2022/01/02 00:31:35;;;;;;;10.77;4.72;;;;;;;;;;8350427;28;20072;-67
2022/01/02 00:35:36;;;;;;;4.88;4.15;;;;;;;;;;8348952;28;20036;-67
2022/01/02 00:39:36;;;;;;;3.90;3.30;;;;;;;;;;8350110;28;20779;-67
2022/01/02 00:43:47;;;;;;;6.25;3.30;;;;;;;;;;8348071;28;20115;-68
2022/01/02 00:47:50;;;;;;;5.50;2.40;;;;;;;;;;8348287;28;20064;-67
2022/01/02 00:51:55;;;;;;;5.90;2.47;;;;;;;;;;8349607;28;20041;-67
2022/01/02 00:55:56;;;;;;;4.70;2.38;;;;;;;;;;8349381;28;20130;-67
2022/01/02 00:59:56;;;;;;;2.55;2.10;;;;;;;;;;8349123;28;20035;-67
2022/01/02 01:03:57;;;;;;;2.45;2.22;;;;;;;;;;8348574;28;20748;-68
2022/01/02 01:07:58;;;;;;;2.60;2.20;;;;;;;;;;8347183;28;20020;-67
2022/01/02 01:11:59;;;;;;;2.47;1.88;;;;;;;;;;8344999;28;20529;-67
2022/01/02 01:15:59;;;;;;;4.78;3.22;;;;;;;;;;8342453;28;20576;-67
2022/01/02 01:20:00;;;;;;;4.65;3.80;;;;;;;;;;8346501;28;20445;-67
2022/01/02 01:24:00;;;;;;;5.47;3.65;;;;;;;;;;8349897;28;20031;-67
2022/01/02 01:28:00;;;;;;;4.20;3.80;;;;;;;;;;8346853;28;20106;-67
2022/01/02 01:32:01;;;;;;;5.32;3.63;;;;;;;;;;8347624;28;20476;-67
2022/01/02 01:36:02;;;;;;;6.93;4.15;;;;;;;;;;8347023;28;20493;-67
2022/01/02 01:40:03;;;;;;;5.25;3.50;;;;;;;;;;8347730;28;20385;-67
2022/01/02 01:44:22;;;;;;;5.20;4.10;;;;;;;;;;8347495;28;20033;-67
2022/01/02 01:48:22;;;;;;;5.03;3.83;;;;;;;;;;8347933;28;20029;-67
2022/01/02 01:52:22;;;;;;;4.93;3.90;;;;;;;;;;8347556;28;20108;-67
2022/01/02 01:56:22;;;;;;;5.97;4.18;;;;;;;;;;8347569;28;20024;-67
2022/01/02 02:00:23;;;;;;;6.15;4.60;;;;;;;;;;8347563;28;20098;-67
2022/01/02 02:04:23;;;;;;;5.28;4.63;;;;;;;;;;8344570;28;20029;-67
2022/01/02 02:08:26;;;;;;;5.57;3.92;;;;;;;;;;8348174;28;20031;-67
2022/01/02 02:12:27;;;;;;;7.43;4.72;;;;;;;;;;8344551;28;20027;-67
2022/01/02 02:16:28;;;;;;;6.28;3.35;;;;;;;;;;8346134;28;20695;-67
2022/01/02 02:20:29;;;;;;;5.07;3.78;;;;;;;;;;8347931;28;20044;-67
2022/01/02 02:24:30;;;;;;;4.68;3.70;;;;;;;;;;8344788;28;20041;-67
2022/01/02 02:28:30;;;;;;;4.75;3.72;;;;;;;;;;8347622;28;20017;-67
2022/01/02 02:32:30;;;;;;;5.00;3.70;;;;;;;;;;8346461;28;20040;-67
2022/01/02 02:36:30;;;;;;;6.32;4.05;;;;;;;;;;8346109;28;20024;-67
2022/01/02 02:40:31;;;;;;;6.07;4.18;;;;;;;;;;8347982;28;20025;-67
2022/01/02 02:44:37;;;;;;;5.75;3.90;;;;;;;;;;8347588;28;20028;-67
2022/01/02 02:52:57;;;;;;;7.07;4.15;;;;;;;;;;8353257;28;20032;-68
2022/01/02 02:56:59;;;;;;;6.40;3.85;;;;;;;;;;8352630;28;20029;-67
2022/01/02 03:00:59;;;;;;;5.78;3.70;;;;;;;;;;8354473;28;20143;-67
2022/01/02 03:04:59;;;;;;;4.97;3.92;;;;;;;;;;8352108;28;20047;-67
2022/01/02 03:09:06;;;;;;;5.28;3.72;;;;;;;;;;8352163;28;20470;-67
2022/01/02 03:13:07;;;;;;;6.45;3.47;;;;;;;;;;8351695;28;20516;-67
2022/01/02 03:17:07;;;;;;;4.90;3.30;;;;;;;;;;8351019;28;20037;-67
2022/01/02 03:21:07;;;;;;;4.93;3.08;;;;;;;;;;8353113;28;20028;-67
2022/01/02 03:25:09;;;;;;;3.50;2.90;;;;;;;;;;8352970;28;20040;-67
2022/01/02 03:29:09;;;;;;;3.58;2.80;;;;;;;;;;8351471;28;20665;-68
2022/01/02 03:33:10;;;;;;;6.00;4.28;;;;;;;;;;8350520;28;20037;-67
2022/01/02 03:37:10;;;;;;;10.80;6.47;;;;;;;;;;8350866;28;20032;-68
2022/01/02 03:41:10;;;;;;;5.88;4.20;;;;;;;;;;8349940;28;20024;-67
2022/01/02 03:45:11;;;;;;;7.88;4.13;;;;;;;;;;8349313;28;20391;-68
2022/01/02 03:49:11;;;;;;;5.70;4.10;;;;;;;;;;8351180;28;20099;-67
2022/01/02 03:53:11;;;;;;;7.10;4.23;;;;;;;;;;8350028;28;20028;-67
2022/01/02 03:57:11;;;;;;;5.22;4.00;;;;;;;;;;8350039;28;20285;-67
2022/01/02 04:01:12;;;;;;;5.45;3.85;;;;;;;;;;8350283;28;20062;-67
2022/01/02 04:05:13;;;;;;;5.90;3.95;;;;;;;;;;8349065;28;20032;-67
2022/01/02 04:09:13;;;;;;;7.50;4.22;;;;;;;;;;8350095;28;20128;-67
2022/01/02 04:13:13;;;;;;;5.93;3.47;;;;;;;;;;8349381;28;20485;-67
2022/01/02 04:17:13;;;;;;;5.50;3.97;;;;;;;;;;8350351;28;20041;-67
2022/01/02 04:21:14;;;;;;;4.88;3.58;;;;;;;;;;8351715;28;20025;-67
2022/01/02 04:25:14;;;;;;;5.47;3.50;;;;;;;;;;8348320;28;20166;-67
2022/01/02 04:29:14;;;;;;;5.03;3.53;;;;;;;;;;8348655;28;20028;-67
2022/01/02 04:33:14;;;;;;;5.43;3.55;;;;;;;;;;8349050;28;20493;-67
2022/01/02 04:37:15;;;;;;;4.50;3.90;;;;;;;;;;8349974;28;20056;-67
2022/01/02 04:41:15;;;;;;;6.40;3.90;;;;;;;;;;8351060;28;20036;-67
2022/01/02 04:45:15;;;;;;;5.80;3.83;;;;;;;;;;8347971;28;20115;-67
2022/01/02 04:49:15;;;;;;;6.97;4.07;;;;;;;;;;8349089;28;20604;-67
2022/01/02 04:53:16;;;;;;;5.60;3.88;;;;;;;;;;8348357;28;20778;-68
2022/01/02 04:57:16;;;;;;;4.70;3.90;;;;;;;;;;8347091;28;20033;-67
2022/01/02 05:01:16;;;;;;;6.75;3.55;;;;;;;;;;8347434;28;20337;-67
2022/01/02 05:05:17;;;;;;;5.82;4.10;;;;;;;;;;8347823;28;20541;-67
2022/01/02 05:09:17;;;;;;;7.55;3.95;;;;;;;;;;8348611;28;20034;-67
2022/01/02 05:13:17;;;;;;;5.50;3.70;;;;;;;;;;8349190;28;20116;-67
2022/01/02 05:17:17;;;;;;;4.97;4.00;;;;;;;;;;8346249;28;20278;-67
2022/01/02 05:21:17;;;;;;;8.40;4.00;;;;;;;;;;8348840;28;20029;-68
2022/01/02 05:25:18;;;;;;;5.20;3.45;;;;;;;;;;8347515;28;21673;-67
2022/01/02 05:29:18;;;;;;;5.85;4.00;;;;;;;;;;8348558;28;20052;-67
2022/01/02 05:33:18;;;;;;;4.97;3.28;;;;;;;;;;8348014;28;20051;-67
2022/01/02 05:37:18;;;;;;;5.25;3.38;;;;;;;;;;8347831;28;20031;-67
2022/01/02 05:41:18;;;;;;;6.80;4.50;;;;;;;;;;8347821;28;20115;-67
2022/01/02 05:45:18;;;;;;;6.80;4.40;;;;;;;;;;8348378;28;20432;-67
2022/01/02 05:49:19;;;;;;;6.13;3.90;;;;;;;;;;8348807;28;20266;-67
2022/01/02 05:53:19;;;;;;;6.18;4.05;;;;;;;;;;8348683;28;20036;-67
2022/01/02 05:57:19;;;;;;;7.38;4.13;;;;;;;;;;8346332;28;20039;-67
2022/01/02 06:01:19;;;;;;;9.25;4.78;;;;;;;;;;8347212;28;20543;-68
2022/01/02 06:05:19;;;;;;;13.23;8.50;;;;;;;;;;8347046;28;20086;-67
2022/01/02 06:09:20;;;;;;;8.30;5.80;;;;;;;;;;8347324;28;20025;-67
2022/01/02 06:13:20;;;;;;;21.52;9.60;;;;;;;;;;8344529;28;20099;-67
2022/01/02 06:17:20;;;;;;;23.42;10.05;;;;;;;;;;8348074;28;20041;-67
2022/01/02 06:21:21;;;;;;;16.10;7.40;;;;;;;;;;8352795;28;20721;-67
2022/01/02 06:25:21;;;;;;;16.27;7.78;;;;;;;;;;8353589;28;20024;-67
2022/01/02 06:29:21;;;;;;;23.02;9.23;;;;;;;;;;8352488;28;20036;-67
2022/01/02 06:33:22;;;;;;;13.53;6.60;;;;;;;;;;8355203;28;20047;-68
2022/01/02 06:37:22;;;;;;;7.85;4.50;;;;;;;;;;8353640;28;20806;-67
2022/01/02 06:41:22;;;;;;;8.82;4.30;;;;;;;;;;8354186;28;20977;-67
2022/01/02 06:45:22;;;;;;;9.18;4.78;;;;;;;;;;8352415;28;20048;-68
2022/01/02 06:49:22;;;;;;;6.60;4.03;;;;;;;;;;8353264;28;20108;-67
2022/01/02 06:53:23;;;;;;;4.93;3.38;;;;;;;;;;8353530;28;20388;-67
2022/01/02 06:57:23;;;;;;;5.53;3.80;;;;;;;;;;8351593;28;20028;-67
2022/01/02 07:01:23;;;;;;;4.93;3.40;;;;;;;;;;8353027;28;20335;-67
2022/01/02 07:05:23;;;;;;;4.43;3.40;;;;;;;;;;8351860;28;20039;-68
2022/01/02 07:09:24;;;;;;;5.22;3.70;;;;;;;;;;8352127;28;20747;-67
2022/01/02 07:13:24;;;;;;;5.85;3.97;;;;;;;;;;8352732;28;20037;-67
2022/01/02 07:17:24;;;;;;;5.25;4.03;;;;;;;;;;8351313;28;20040;-67
2022/01/02 07:21:24;;;;;;;4.68;3.47;;;;;;;;;;8351882;28;20028;-67
2022/01/02 07:25:24;;;;;;;5.18;3.90;;;;;;;;;;8351203;28;20122;-67
2022/01/02 07:29:25;;;;;;;7.13;4.00;;;;;;;;;;8353077;28;20024;-67
2022/01/02 07:33:25;;;;;;;5.03;4.18;;;;;;;;;;8349018;28;20044;-67
2022/01/02 07:37:25;;;;;;;5.72;3.83;;;;;;;;;;8352069;28;20161;-67
2022/01/02 07:41:25;;;;;;;4.45;3.60;;;;;;;;;;8351917;28;20044;-67
2022/01/02 07:45:26;;;;;;;4.15;2.80;;;;;;;;;;8351562;28;20067;-68
2022/01/02 07:49:26;;;;;;;3.28;2.28;;;;;;;;;;8350866;28;20447;-67
2022/01/02 07:53:26;;;;;;;3.72;2.28;;;;;;;;;;8351350;28;20025;-67
2022/01/02 07:57:26;;;;;;;5.68;2.58;;;;;;;;;;8350710;28;20021;-67
2022/01/02 08:01:27;;;;;;;4.25;2.85;;;;;;;;;;8351394;28;20028;-67
2022/01/02 08:05:27;;;;;;;3.65;3.30;;;;;;;;;;8349201;28;20051;-67
2022/01/02 08:09:27;;;;;;;5.13;3.33;;;;;;;;;;8350606;28;20497;-67
2022/01/02 08:13:28;;;;;;;4.20;3.30;;;;;;;;;;8358674;28;20024;-67
2022/01/02 08:17:28;;;;;;;6.43;3.83;;;;;;;;;;8348241;28;20036;-67
2022/01/02 08:21:28;;;;;;;3.97;3.55;;;;;;;;;;8349458;28;20114;-67
2022/01/02 08:25:28;;;;;;;5.70;3.38;;;;;;;;;;8349402;28;20033;-67
2022/01/02 08:29:28;;;;;;;4.40;3.35;;;;;;;;;;8350679;28;20024;-67
2022/01/02 08:33:29;;;;;;;4.13;3.30;;;;;;;;;;8349698;28;20039;-67
2022/01/02 08:37:29;;;;;;;5.47;3.67;;;;;;;;;;8349931;28;20025;-67
2022/01/02 08:41:29;;;;;;;3.58;3.10;;;;;;;;;;8348752;28;20036;-67
2022/01/02 08:45:30;;;;;;;6.38;3.47;;;;;;;;;;8346161;28;20079;-68
2022/01/02 08:49:30;;;;;;;6.53;3.53;;;;;;;;;;8349738;28;20087;-67
2022/01/02 08:53:32;;;;;;;5.95;3.25;;;;;;;;;;8350620;28;20266;-67
2022/01/02 08:57:32;;;;;;;5.68;3.50;;;;;;;;;;8350083;28;20025;-67
2022/01/02 09:01:33;;;;;;;4.33;3.63;;;;;;;;;;8348422;28;20249;-67
2022/01/02 09:05:33;;;;;;;5.53;3.50;;;;;;;;;;8347840;28;20282;-67
2022/01/02 09:09:33;;;;;;;5.10;3.42;;;;;;;;;;8348211;28;20025;-67
2022/01/02 09:13:33;;;;;;;5.70;3.72;;;;;;;;;;8348739;28;20039;-67
2022/01/02 09:17:34;;;;;;;4.60;3.22;;;;;;;;;;8345864;28;20420;-67
2022/01/02 09:21:34;;;;;;;4.67;2.97;;;;;;;;;;8348466;28;20029;-67
2022/01/02 09:25:34;;;;;;;3.60;3.22;;;;;;;;;;8347938;28;20382;-67
2022/01/02 09:29:35;;;;;;;4.25;3.30;;;;;;;;;;8348517;28;20021;-67
2022/01/02 09:33:35;;;;;;;5.35;3.38;;;;;;;;;;8347300;28;20045;-67
2022/01/02 09:37:35;;;;;;;2.50;1.90;;;;;;;;;;8348705;28;20217;-67
2022/01/02 09:41:38;;;;;;;2.78;2.10;;;;;;;;;;8347659;28;20119;-67
2022/01/02 09:45:40;;;;;;;4.60;2.20;;;;;;;;;;8342327;28;20127;-68
2022/01/02 09:49:40;;;;;;;3.40;2.03;;;;;;;;;;8347505;28;20063;-67
2022/01/02 09:53:40;;;;;;;3.42;2.20;;;;;;;;;;8345001;28;20028;-67
2022/01/02 09:57:42;;;;;;;2.63;2.22;;;;;;;;;;8347190;28;20032;-67
2022/01/02 10:01:43;;;;;;;3.03;2.10;;;;;;;;;;8346309;28;20033;-67
2022/01/02 10:05:49;;;;;;;3.83;2.20;;;;;;;;;;8345213;28;20567;-67
2022/01/02 10:09:49;;;;;;;2.67;2.00;;;;;;;;;;8348538;28;20017;-67
2022/01/02 10:13:52;;;;;;;3.08;2.40;;;;;;;;;;8346503;28;20033;-67
2022/01/02 10:18:08;;;;;;;3.63;2.22;;;;;;;;;;8345110;28;20041;-67
2022/01/02 10:22:08;;;;;;;2.17;1.90;;;;;;;;;;8346277;28;20028;-67
2022/01/02 10:26:08;;;;;;;2.47;1.88;;;;;;;;;;8346423;28;20028;-68
2022/01/02 10:30:09;;;;;;;6.20;2.20;;;;;;;;;;8347504;28;20025;-68
2022/01/02 10:34:09;;;;;;;3.23;1.80;;;;;;;;;;8344881;28;20059;-68
2022/01/02 10:38:14;;;;;;;4.32;1.88;;;;;;;;;;8347344;28;20746;-68
2022/01/02 10:42:18;;;;;;;3.67;2.00;;;;;;;;;;8345248;28;20032;-68
2022/01/02 10:46:18;;;;;;;2.42;1.48;;;;;;;;;;8347628;28;20040;-68
2022/01/02 10:50:18;;;;;;;3.88;1.73;;;;;;;;;;8344420;28;20104;-68
2022/01/02 10:54:18;;;;;;;3.30;2.17;;;;;;;;;;8346031;28;20031;-68
2022/01/02 10:58:19;;;;;;;2.57;1.67;;;;;;;;;;8347844;28;20107;-68
2022/01/02 11:02:19;;;;;;;3.80;1.92;;;;;;;;;;8344953;28;20275;-68
2022/01/02 11:06:32;;;;;;;4.40;1.80;;;;;;;;;;8347866;28;20136;-68
2022/01/02 11:10:35;;;;;;;5.50;2.20;;;;;;;;;;8349963;28;20017;-67
2022/01/02 11:14:35;;;;;;;2.90;2.17;;;;;;;;;;8351422;28;20025;-67
2022/01/02 11:18:36;;;;;;;3.57;2.40;;;;;;;;;;8350570;28;20128;-67
2022/01/02 11:22:41;;;;;;;2.80;2.20;;;;;;;;;;8352206;28;20305;-67
2022/01/02 11:27:04;;;;;;;2.60;2.38;;;;;;;;;;8350803;28;20762;-68
2022/01/02 11:31:06;;;;;;;4.40;2.25;;;;;;;;;;8352845;28;20044;-68
2022/01/02 11:35:23;;;;;;;5.68;2.35;;;;;;;;;;8348419;28;20032;-68
2022/01/02 11:39:23;;;;;;;3.92;2.53;;;;;;;;;;8350743;28;20681;-67
2022/01/02 11:43:49;;;;;;;4.70;2.63;;;;;;;;;;8349304;28;20732;-67
2022/01/02 11:47:49;;;;;;;2.85;2.30;;;;;;;;;;8348231;28;20036;-67
2022/01/02 11:51:57;;;;;;;2.92;2.45;;;;;;;;;;8335567;28;20926;-67
2022/01/02 11:55:57;;;;;;;3.22;2.55;;;;;;;;;;8350753;28;20438;-68
2022/01/02 11:59:58;;;;;;;6.15;3.22;;;;;;;;;;8350087;28;20058;-68
2022/01/02 12:03:58;;;;;;;7.82;3.00;;;;;;;;;;8348817;28;20124;-68
2022/01/02 12:08:00;;;;;;;3.97;2.60;;;;;;;;;;8348453;28;20124;-68
2022/01/02 12:12:02;;;;;;;3.45;2.70;;;;;;;;;;8348900;28;20024;-68
2022/01/02 12:16:02;;;;;;;3.67;2.50;;;;;;;;;;8356723;28;20122;-68
2022/01/02 12:20:04;;;;;;;3.92;2.55;;;;;;;;;;8348226;28;20025;-68
2022/01/02 12:24:12;;;;;;;6.68;3.08;;;;;;;;;;8349450;28;20040;-68
2022/01/02 12:28:12;;;;;;;3.88;2.90;;;;;;;;;;8349444;28;20327;-69
2022/01/02 12:32:15;;;;;;;7.30;3.05;;;;;;;;;;8342528;28;20033;-68
2022/01/02 12:36:16;;;;;;;4.05;3.10;;;;;;;;;;8347747;28;20064;-68
2022/01/02 12:40:17;;;;;;;5.28;2.95;;;;;;;;;;8344302;28;20090;-68
2022/01/02 12:44:28;;;;;;;3.97;2.65;;;;;;;;;;8345070;28;21374;-68
2022/01/02 12:48:35;;;;;;;4.10;2.92;;;;;;;;;;8343116;28;20036;-68
2022/01/02 12:52:35;;;;;;;8.50;3.40;;;;;;;;;;8346330;28;20033;-68
2022/01/02 12:56:42;;;;;;;4.15;3.35;;;;;;;;;;8344570;28;20114;-68
2022/01/02 13:00:43;;;;;;;4.93;2.70;;;;;;;;;;8344182;28;20033;-68
2022/01/02 13:04:44;;;;;;;6.15;3.30;;;;;;;;;;8344377;28;20732;-68
2022/01/02 13:08:55;;;;;;;3.17;2.88;;;;;;;;;;8344211;28;20792;-68
2022/01/02 13:12:55;;;;;;;6.35;3.20;;;;;;;;;;8343294;28;20036;-68
2022/01/02 13:16:56;;;;;;;4.18;3.30;;;;;;;;;;8341320;28;20134;-68
2022/01/02 13:20:56;;;;;;;6.05;3.60;;;;;;;;;;8343106;28;20509;-68
2022/01/02 13:25:03;;;;;;;4.32;3.13;;;;;;;;;;8342070;28;20025;-68
2022/01/02 13:29:03;;;;;;;4.88;2.90;;;;;;;;;;8340633;28;20072;-68
2022/01/02 13:33:23;;;;;;;6.65;3.35;;;;;;;;;;8338337;28;20036;-68
2022/01/02 13:37:34;;;;;;;4.60;2.95;;;;;;;;;;8345630;28;20029;-68
2022/01/02 13:41:48;;;;;;;7.10;2.90;;;;;;;;;;8343355;28;20210;-68
2022/01/02 13:45:50;;;;;;;5.13;3.03;;;;;;;;;;8339970;28;20036;-68
2022/01/02 13:49:56;;;;;;;5.88;3.08;;;;;;;;;;8340844;28;20378;-68
2022/01/02 13:53:56;;;;;;;5.75;3.40;;;;;;;;;;8342298;28;20098;-68
2022/01/02 13:57:57;;;;;;;8.57;3.10;;;;;;;;;;8336635;28;20025;-68
2022/01/02 14:01:57;;;;;;;4.72;2.97;;;;;;;;;;8343973;28;20431;-68
2022/01/02 14:05:58;;;;;;;7.05;3.00;;;;;;;;;;8338873;28;20570;-67
2022/01/02 14:10:01;;;;;;;4.40;2.92;;;;;;;;;;8341604;28;20028;-68
2022/01/02 14:18:09;;;;;;;3.50;2.65;;;;;;;;;;8339054;28;20045;-68
2022/01/02 14:22:13;;;;;;;4.70;3.20;;;;;;;;;;8343067;28;20036;-68
2022/01/02 14:26:15;;;;;;;4.07;2.60;;;;;;;;;;8341073;28;20032;-68
2022/01/02 14:30:15;;;;;;;5.13;2.80;;;;;;;;;;8344103;28;20041;-68
2022/01/02 14:34:16;;;;;;;8.10;3.05;;;;;;;;;;8340486;28;20017;-68
2022/01/02 14:38:16;;;;;;;4.15;2.80;;;;;;;;;;8339980;28;20025;-68
2022/01/02 14:42:16;;;;;;;4.03;2.80;;;;;;;;;;8345796;28;20101;-68
2022/01/02 14:46:17;;;;;;;6.05;3.10;;;;;;;;;;8344328;28;20044;-69
2022/01/02 14:50:17;;;;;;;5.00;2.85;;;;;;;;;;8346330;28;20274;-69
2022/01/02 14:54:18;;;;;;;9.73;3.17;;;;;;;;;;8347129;28;20070;-68
2022/01/02 14:58:18;;;;;;;3.38;2.80;;;;;;;;;;8347281;28;20075;-68
2022/01/02 15:02:18;;;;;;;7.65;2.85;;;;;;;;;;8353224;28;20485;-68
2022/01/02 15:06:18;;;;;;;5.40;3.00;;;;;;;;;;8346763;28;20085;-68
2022/01/02 15:10:18;;;;;;;4.53;2.45;;;;;;;;;;8345259;28;20044;-69
2022/01/02 15:14:19;;;;;;;6.22;2.63;;;;;;;;;;8347477;28;20032;-68
2022/01/02 15:18:19;;;;;;;8.18;2.67;;;;;;;;;;8346657;28;20121;-68
2022/01/02 15:22:19;;;;;;;5.60;2.53;;;;;;;;;;8348107;28;20078;-68
2022/01/02 15:26:19;;;;;;;4.68;2.70;;;;;;;;;;8345771;28;20028;-68
2022/01/02 15:30:20;;;;;;;11.50;2.92;;;;;;;;;;8343882;28;20021;-68
2022/01/02 15:34:20;;;;;;;5.13;2.55;;;;;;;;;;8346297;28;20296;-68
2022/01/02 15:38:21;;;;;;;6.10;2.65;;;;;;;;;;8346459;28;20253;-68
2022/01/02 15:42:21;;;;;;;4.10;2.33;;;;;;;;;;8343407;28;20062;-68
2022/01/02 15:46:21;;;;;;;6.88;2.40;;;;;;;;;;8348527;28;20086;-68
2022/01/02 15:50:21;;;;;;;7.05;3.30;;;;;;;;;;8345036;28;20103;-68
2022/01/02 15:54:22;;;;;;;6.90;2.92;;;;;;;;;;8344542;28;20017;-68
2022/01/02 15:58:22;;;;;;;4.90;2.50;;;;;;;;;;8345996;28;20855;-68
2022/01/02 16:02:22;;;;;;;3.85;2.65;;;;;;;;;;8345265;28;20286;-68
2022/01/02 16:06:23;;;;;;;5.78;3.00;;;;;;;;;;8344659;28;20086;-68
2022/01/02 16:10:23;;;;;;;6.93;3.27;;;;;;;;;;8346777;28;20029;-68
2022/01/02 16:14:23;;;;;;;10.50;2.85;;;;;;;;;;8346434;28;20300;-68
2022/01/02 16:18:23;;;;;;;7.28;3.30;;;;;;;;;;8342495;28;20032;-67
2022/01/02 16:22:24;;;;;;;4.63;2.60;;;;;;;;;;8344690;28;20016;-67
2022/01/02 16:26:24;;;;;;;6.88;2.83;;;;;;;;;;8343429;28;20067;-68
2022/01/02 16:30:25;;;;;;;5.78;3.05;;;;;;;;;;8346996;28;20029;-68
2022/01/02 16:34:25;;;;;;;7.38;2.80;;;;;;;;;;8342835;28;20056;-68
2022/01/02 16:38:25;;;;;;;5.38;2.60;;;;;;;;;;8343481;28;20032;-68
2022/01/02 16:42:25;;;;;;;6.10;3.10;;;;;;;;;;8341381;28;20068;-68
2022/01/02 16:46:26;;;;;;;8.65;3.08;;;;;;;;;;8344283;28;20060;-68
2022/01/02 16:50:26;;;;;;;6.20;3.17;;;;;;;;;;8343402;28;20024;-68
2022/01/02 16:54:26;;;;;;;8.23;3.07;;;;;;;;;;8345023;28;20024;-68
2022/01/02 16:58:27;;;;;;;5.68;2.83;;;;;;;;;;8345211;28;20264;-68
2022/01/02 17:02:27;;;;;;;7.65;2.95;;;;;;;;;;8343431;28;20052;-68
2022/01/02 17:06:27;;;;;;;7.05;2.90;;;;;;;;;;8342998;28;20120;-68
2022/01/02 17:10:27;;;;;;;7.68;2.90;;;;;;;;;;8346651;28;20674;-68
2022/01/02 17:14:29;;;;;;;5.78;2.92;;;;;;;;;;8344940;28;20032;-68
2022/01/02 17:18:29;;;;;;;7.70;3.00;;;;;;;;;;8343415;28;20755;-68
2022/01/02 17:22:29;;;;;;;5.65;2.97;;;;;;;;;;8344815;28;20055;-67
2022/01/02 17:26:29;;;;;;;5.05;2.50;;;;;;;;;;8344976;28;20032;-68
2022/01/02 17:30:30;;;;;;;8.50;2.78;;;;;;;;;;8343874;28;20061;-68
2022/01/02 17:34:31;;;;;;;5.72;2.78;;;;;;;;;;8344831;28;20020;-68
2022/01/02 17:38:31;;;;;;;7.80;2.90;;;;;;;;;;8342996;28;20561;-68
2022/01/02 17:42:31;;;;;;;7.78;2.63;;;;;;;;;;8342721;28;20111;-68
2022/01/02 17:46:32;;;;;;;6.60;2.78;;;;;;;;;;8342802;28;20050;-68
2022/01/02 17:50:33;;;;;;;7.78;2.60;;;;;;;;;;8343146;28;20143;-68
2022/01/02 17:54:34;;;;;;;7.47;2.50;;;;;;;;;;8344158;28;20024;-68
2022/01/02 17:58:34;;;;;;;6.22;2.50;;;;;;;;;;8343513;28;20117;-68
2022/01/02 18:02:34;;;;;;;10.25;2.55;;;;;;;;;;8341278;28;20032;-68
2022/01/02 18:06:35;;;;;;;10.02;2.58;;;;;;;;;;8342978;28;20059;-68
2022/01/02 18:10:37;;;;;;;5.30;2.60;;;;;;;;;;8343383;28;20025;-68
2022/01/02 18:14:37;;;;;;;7.22;2.72;;;;;;;;;;8341901;28;20020;-68
2022/01/02 18:18:37;;;;;;;7.28;2.35;;;;;;;;;;8342644;28;20079;-68
2022/01/02 18:22:37;;;;;;;4.47;2.08;;;;;;;;;;8342649;28;20046;-68
2022/01/02 18:26:38;;;;;;;9.98;2.38;;;;;;;;;;8342986;28;20112;-68
2022/01/02 18:30:38;;;;;;;7.70;2.20;;;;;;;;;;8341551;28;20401;-68
2022/01/02 18:34:38;;;;;;;9.45;3.08;;;;;;;;;;8342787;28;20591;-68
2022/01/02 18:38:38;;;;;;;5.70;2.60;;;;;;;;;;8341601;28;20242;-68
2022/01/02 18:42:39;;;;;;;6.93;2.63;;;;;;;;;;8342429;28;20025;-68
2022/01/02 18:46:39;;;;;;;10.07;2.95;;;;;;;;;;8340738;28;20533;-68
2022/01/02 18:50:39;;;;;;;6.20;2.40;;;;;;;;;;8343848;28;20507;-68
2022/01/02 18:54:40;;;;;;;7.05;2.33;;;;;;;;;;8342029;28;20024;-68
2022/01/02 18:58:40;;;;;;;5.50;2.55;;;;;;;;;;8342728;28;20071;-68
2022/01/02 19:02:40;;;;;;;7.57;2.88;;;;;;;;;;8341162;28;20037;-68
2022/01/02 19:06:41;;;;;;;7.53;1.95;;;;;;;;;;8341853;28;21010;-67
2022/01/02 19:10:41;;;;;;;6.63;2.40;;;;;;;;;;8343607;28;20715;-68
2022/01/02 19:14:41;;;;;;;8.47;2.97;;;;;;;;;;8340230;28;20036;-68
2022/01/02 19:18:41;;;;;;;7.67;2.40;;;;;;;;;;8340973;28;20326;-68
2022/01/02 19:22:47;;;;;;;7.85;2.42;;;;;;;;;;8341864;28;20115;-68
2022/01/02 19:26:47;;;;;;;6.20;2.88;;;;;;;;;;8341372;28;20032;-68
2022/01/02 19:30:48;;;;;;;6.85;2.58;;;;;;;;;;8346459;28;20037;-68
2022/01/02 19:34:49;;;;;;;5.27;2.40;;;;;;;;;;8346962;28;20048;-68
2022/01/02 19:38:49;;;;;;;10.27;2.60;;;;;;;;;;8348387;28;20287;-67
2022/01/02 19:42:49;;;;;;;8.00;3.20;;;;;;;;;;8346759;28;20105;-68
2022/01/02 19:46:50;;;;;;;10.17;3.03;;;;;;;;;;8344795;28;20276;-68
2022/01/02 19:50:50;;;;;;;7.30;2.72;;;;;;;;;;8346330;28;20322;-68
2022/01/02 19:54:51;;;;;;;10.32;2.85;;;;;;;;;;8346370;28;20177;-68
2022/01/02 19:58:51;;;;;;;5.65;2.50;;;;;;;;;;8346116;28;20042;-68
2022/01/02 20:02:51;;;;;;;6.60;2.95;;;;;;;;;;8347098;28;20040;-68
2022/01/02 20:06:51;;;;;;;6.38;2.80;;;;;;;;;;8347307;28;20036;-68
2022/01/02 20:10:52;;;;;;;6.35;2.72;;;;;;;;;;8347951;28;20013;-68
2022/01/02 20:14:52;;;;;;;8.70;2.93;;;;;;;;;;8346457;28;20025;-68
2022/01/02 20:18:52;;;;;;;6.70;2.92;;;;;;;;;;8346535;28;20374;-68
2022/01/02 20:22:53;;;;;;;7.20;2.60;;;;;;;;;;8345807;28;20975;-68
2022/01/02 20:26:53;;;;;;;6.65;2.75;;;;;;;;;;8346730;28;20515;-68
2022/01/02 20:30:53;;;;;;;7.88;3.10;;;;;;;;;;8346558;28;20557;-68
2022/01/02 20:34:54;;;;;;;7.18;2.80;;;;;;;;;;8342954;28;20094;-68
2022/01/02 20:38:54;;;;;;;6.47;2.90;;;;;;;;;;8347875;28;20044;-68
2022/01/02 20:42:56;;;;;;;9.02;2.85;;;;;;;;;;8345412;28;20293;-68
2022/01/02 20:46:56;;;;;;;8.07;3.20;;;;;;;;;;8345316;28;20660;-68
2022/01/02 20:50:57;;;;;;;7.23;2.80;;;;;;;;;;8345328;28;20435;-68
2022/01/02 20:54:58;;;;;;;10.05;2.85;;;;;;;;;;8344389;28;20306;-68
2022/01/02 20:58:58;;;;;;;8.25;2.60;;;;;;;;;;8344142;28;20048;-68
2022/01/02 21:02:58;;;;;;;10.82;2.90;;;;;;;;;;8344372;28;20048;-68
2022/01/02 21:06:58;;;;;;;7.60;3.17;;;;;;;;;;8343307;28;20024;-68
2022/01/02 21:10:58;;;;;;;6.38;2.88;;;;;;;;;;8344059;28;20028;-68
2022/01/02 21:14:59;;;;;;;11.80;2.60;;;;;;;;;;8345207;28;20020;-68
2022/01/02 21:18:59;;;;;;;7.17;2.80;;;;;;;;;;8344291;28;20036;-68
2022/01/02 21:22:59;;;;;;;5.85;2.80;;;;;;;;;;8343526;28;20353;-67
2022/01/02 21:27:00;;;;;;;8.52;2.55;;;;;;;;;;8340695;28;20519;-67
2022/01/02 21:31:01;;;;;;;8.85;2.60;;;;;;;;;;8343778;28;20147;-67
2022/01/02 21:35:02;;;;;;;7.60;2.65;;;;;;;;;;8341830;28;20023;-68
2022/01/02 21:39:04;;;;;;;8.73;2.80;;;;;;;;;;8339512;28;20032;-68
2022/01/02 21:43:04;;;;;;;10.30;2.77;;;;;;;;;;8344015;28;20032;-68
2022/01/02 21:47:04;;;;;;;6.38;2.35;;;;;;;;;;8343628;28;20037;-67
2022/01/02 21:51:05;;;;;;;9.98;2.63;;;;;;;;;;8341523;28;20028;-70
2022/01/02 21:55:05;;;;;;;7.03;2.60;;;;;;;;;;8343516;28;20098;-68
2022/01/02 21:59:06;;;;;;;4.40;2.28;;;;;;;;;;8342836;28;20089;-67
2022/01/02 22:03:09;;;;;;;7.38;2.45;;;;;;;;;;8341727;28;20966;-67
2022/01/02 22:07:10;;;;;;;10.77;2.90;;;;;;;;;;8340993;28;20031;-67
2022/01/02 22:11:10;;;;;;;5.88;2.55;;;;;;;;;;8343510;28;20053;-67
2022/01/02 22:15:11;;;;;;;9.93;2.50;;;;;;;;;;8342464;28;20489;-67
2022/01/02 22:19:11;;;;;;;6.15;2.60;;;;;;;;;;8342318;28;20421;-67
2022/01/02 22:23:13;;;;;;;11.35;2.60;;;;;;;;;;8343149;28;20021;-67
2022/01/02 22:27:14;;;;;;;6.32;2.40;;;;;;;;;;8342007;28;20570;-68
2022/01/02 22:31:15;;;;;;;9.00;2.40;;;;;;;;;;8342530;28;20140;-68
2022/01/02 22:35:16;;;;;;;6.78;2.42;;;;;;;;;;8342471;28;20679;-68
2022/01/02 22:39:17;;;;;;;7.03;2.25;;;;;;;;;;8342378;28;20037;-67
2022/01/02 22:43:17;;;;;;;7.38;2.22;;;;;;;;;;8341783;28;20039;-68
2022/01/02 22:47:18;;;;;;;6.43;1.98;;;;;;;;;;8340512;28;20033;-67
2022/01/02 22:51:20;;;;;;;10.25;2.63;;;;;;;;;;8342268;28;20020;-67
2022/01/02 22:55:21;;;;;;;7.05;2.10;;;;;;;;;;8341502;28;20056;-68
2022/01/02 22:59:22;;;;;;;7.75;2.30;;;;;;;;;;8341731;28;20470;-68
2022/01/02 23:03:25;;;;;;;5.97;1.90;;;;;;;;;;8343540;28;20168;-68
2022/01/02 23:07:25;;;;;;;6.10;2.10;;;;;;;;;;8348966;28;20122;-67
2022/01/02 23:11:25;;;;;;;10.00;1.90;;;;;;;;;;8348154;28;20021;-67
2022/01/02 23:15:26;;;;;;;7.60;2.17;;;;;;;;;;8347592;28;20029;-68
2022/01/02 23:19:30;;;;;;;6.85;1.70;;;;;;;;;;8347296;28;20767;-67
2022/01/02 23:23:31;;;;;;;13.02;2.63;;;;;;;;;;8348211;28;20082;-67
2022/01/02 23:27:32;;;;;;;12.15;2.97;;;;;;;;;;8346379;28;20028;-68
2022/01/02 23:31:32;;;;;;;10.52;2.90;;;;;;;;;;8345348;28;20549;-68
2022/01/02 23:35:33;;;;;;;12.93;2.80;;;;;;;;;;8348079;28;20572;-67
2022/01/02 23:39:34;;;;;;;11.98;2.63;;;;;;;;;;8347019;28;20029;-67
2022/01/02 23:43:34;;;;;;;10.02;2.50;;;;;;;;;;8348710;28;20028;-67
2022/01/02 23:47:37;;;;;;;11.45;2.33;;;;;;;;;;8345390;28;20059;-67
2022/01/02 23:51:38;;;;;;;7.07;2.22;;;;;;;;;;8347347;28;20104;-67
2022/01/02 23:55:39;;;;;;;5.50;1.27;;;;;;;;;;8346239;28;20107;-68
2022/01/02 23:59:40;;;;;;;9.25;1.23;;;;;;;;;;8348119;28;20025;-67
